Skagerak — SGCD — position and weather

sailwx.info

Track history (hours):
 
Tides and Currents Weather Stations Pressure Air Temp Water Temp Dewpoint Dewpoint Depression Visibility Wind Speed Wind Dir Waves Ship Positions

Oceanographic research ship Skagerak (Sweden)

Detailed information on ship capabilities available from University of Delaware's Ocean Information Center.

Last reported at 2016-Dec-06 15:33 UTC. Time now 2016-Dec-06 18:04 UTC.
Position N 58°20' E 011°53'.

Length 38 m; draft 3.8 m.

Type: Dredging. MMSI: 265280000.

Date/timePositionNaut miles runAvg speedWind from/ knotsBaromVisibWave heightAir tempDewpointWater temp
2016-Dec-06 15:33N 58°20' E 011°53'0 0.1
2016-Dec-06 12:27N 58°21' E 011°54'0 0.3
2016-Dec-06 11:32N 58°21' E 011°54'8 5.6
2016-Dec-06 10:08N 58°17' E 011°40'6 8.8
2016-Dec-06 09:27N 58°13' E 011°32'4 4.4
2016-Dec-06 08:32N 58°14' E 011°25'  
2016-Dec-02 17:26N 58°15' E 011°27'0 0.0
2016-Dec-02 16:32N 58°15' E 011°27'0 0.0
2016-Dec-02 14:28N 58°15' E 011°27'0 0.0
2016-Dec-02 13:27N 58°15' E 011°27'0 0.0
2016-Dec-02 12:16N 58°15' E 011°27'0 0.0
2016-Dec-02 11:20N 58°15' E 011°27'0 0.0
2016-Dec-02 10:33N 58°15' E 011°27'0 0.0
2016-Dec-02 09:33N 58°15' E 011°27'0 0.0
2016-Dec-02 08:32N 58°15' E 011°27'0 0.0
2016-Dec-02 07:26N 58°15' E 011°27'0 0.0
2016-Dec-02 06:33N 58°15' E 011°27'0 0.0
2016-Dec-02 05:22N 58°15' E 011°27'0 0.0
2016-Dec-02 04:27N 58°15' E 011°27'0 0.0
2016-Dec-02 03:26N 58°15' E 011°27'0 0.0
2016-Dec-02 02:30N 58°15' E 011°27'0 0.0
2016-Dec-02 01:24N 58°15' E 011°27'0 0.0
2016-Dec-02 00:22N 58°15' E 011°27'0 0.0
2016-Dec-01 23:19N 58°15' E 011°27'0 0.0
2016-Dec-01 22:33N 58°15' E 011°27'0 0.0
2016-Dec-01 21:26N 58°15' E 011°27'0 0.0
2016-Dec-01 20:30N 58°15' E 011°27'0 0.0
2016-Dec-01 19:28N 58°15' E 011°27'0 0.0
2016-Dec-01 18:32N 58°15' E 011°27'0 0.0
2016-Dec-01 17:20N 58°15' E 011°27'0 0.0
2016-Dec-01 16:32N 58°15' E 011°27'0 0.0
2016-Dec-01 15:20N 58°15' E 011°27'0 0.0
2016-Dec-01 14:14N 58°15' E 011°27'1 1.7
2016-Dec-01 13:33N 58°16' E 011°25'1 1.0
2016-Dec-01 12:33N 58°16' E 011°27'1 1.2
2016-Dec-01 11:33N 58°16' E 011°29'5 4.7
2016-Dec-01 10:30N 58°21' E 011°34'1 1.5
2016-Dec-01 09:32N 58°19' E 011°33'4 4.3
2016-Dec-01 08:33N 58°16' E 011°28'1 0.1
2016-Nov-30 14:11N 58°15' E 011°27'1 1.0
2016-Nov-30 13:33N 58°16' E 011°26'0 0.5
2016-Nov-30 12:33N 58°16' E 011°27'5 1.4
2016-Nov-30 09:09N 58°19' E 011°33'4 6.9
2016-Nov-30 08:30N 58°16' E 011°26'1 0.0
2016-Nov-29 13:30N 58°16' E 011°26'0 0.5
2016-Nov-29 12:33N 58°16' E 011°27'0 0.1
2016-Nov-29 08:33N 58°16' E 011°27'1 0.0
2016-Nov-28 14:19N 58°15' E 011°27'6 7.5
2016-Nov-28 13:33N 58°10' E 011°22'8 7.6
2016-Nov-28 12:31N 58°03' E 011°26'2 1.8
2016-Nov-28 11:33N 58°02' E 011°29'9 9.3
2016-Nov-28 10:33N 57°53' E 011°29'9 9.4
2016-Nov-28 09:33N 57°45' E 011°40'7 7.4
2016-Nov-28 08:33N 57°40' E 011°49'2 1.7
2016-Nov-28 07:33N 57°39' E 011°52'0 0.0
2016-Nov-28 06:33N 57°39' E 011°52'0 0.0
2016-Nov-28 05:34N 57°39' E 011°52'0 0.0
2016-Nov-28 04:34N 57°39' E 011°52'0 0.0
2016-Nov-28 03:34N 57°39' E 011°52'0 0.0
2016-Nov-28 02:34N 57°39' E 011°52'0 0.0
2016-Nov-28 01:34N 57°39' E 011°52'0 0.0
2016-Nov-28 00:33N 57°39' E 011°52'0 0.0
2016-Nov-27 23:33N 57°39' E 011°52'0 0.0
2016-Nov-27 22:34N 57°39' E 011°52'0 0.0
2016-Nov-27 21:34N 57°39' E 011°52'0 0.0
2016-Nov-27 20:34N 57°39' E 011°52'0 0.0
2016-Nov-27 19:34N 57°39' E 011°52'0 0.1
2016-Nov-27 18:34N 57°39' E 011°52'0 0.1
2016-Nov-27 17:34N 57°39' E 011°52'0 0.0
2016-Nov-27 16:33N 57°39' E 011°52'0 0.0
2016-Nov-27 15:33N 57°39' E 011°52'0 0.0
2016-Nov-27 14:34N 57°39' E 011°52'0 0.0
2016-Nov-27 13:34N 57°39' E 011°52'0 0.0
2016-Nov-27 12:33N 57°39' E 011°52'0 0.0
2016-Nov-27 11:34N 57°39' E 011°52'0 0.0
2016-Nov-27 10:33N 57°39' E 011°52'0 0.0
2016-Nov-27 09:33N 57°39' E 011°52'0 0.0
2016-Nov-27 08:34N 57°39' E 011°52'0 0.0
2016-Nov-27 07:33N 57°39' E 011°52'0 0.0
2016-Nov-27 06:33N 57°39' E 011°52'0 0.0
2016-Nov-27 05:33N 57°39' E 011°52'0 0.0
2016-Nov-27 04:33N 57°39' E 011°52'0 0.0
2016-Nov-27 03:33N 57°39' E 011°52'0 0.0
2016-Nov-27 02:33N 57°39' E 011°52'0 0.0
2016-Nov-27 01:33N 57°39' E 011°52'0 0.0
2016-Nov-27 00:33N 57°39' E 011°52'0 0.0
2016-Nov-26 23:33N 57°39' E 011°52'0 0.0
2016-Nov-26 22:33N 57°39' E 011°52'0 0.0
2016-Nov-26 21:34N 57°39' E 011°52'0 0.0
2016-Nov-26 20:33N 57°39' E 011°52'0 0.0
2016-Nov-26 19:34N 57°39' E 011°52'0 0.0
2016-Nov-26 18:33N 57°39' E 011°52'0 0.0
2016-Nov-26 17:33N 57°39' E 011°52'0 0.0
2016-Nov-26 16:33N 57°39' E 011°52'0 0.0
2016-Nov-26 15:33N 57°39' E 011°52'  
Track history (hours):
 
Tides and Currents Weather Stations Pressure Air Temp Water Temp Dewpoint Dewpoint Depression Visibility Wind Speed Wind Dir Waves Ship Positions

Oceanographic research ship Skagerak (Sweden)

Detailed information on ship capabilities available from University of Delaware's Ocean Information Center.

Last reported at 2016-Dec-06 15:33 UTC. Time now 2016-Dec-06 18:04 UTC.
Position N 58°20' E 011°53'.

Length 38 m; draft 3.8 m.

Type: Dredging. MMSI: 265280000.

Date/timePositionNaut miles runAvg speedWind from/ knotsBaromVisibWave heightAir tempDewpointWater temp
2016-Dec-06 15:33N 58°20' E 011°53'0 0.1
2016-Dec-06 12:27N 58°21' E 011°54'0 0.3
2016-Dec-06 11:32N 58°21' E 011°54'8 5.6
2016-Dec-06 10:08N 58°17' E 011°40'6 8.8
2016-Dec-06 09:27N 58°13' E 011°32'4 4.4
2016-Dec-06 08:32N 58°14' E 011°25'  
2016-Dec-02 17:26N 58°15' E 011°27'0 0.0
2016-Dec-02 16:32N 58°15' E 011°27'0 0.0
2016-Dec-02 14:28N 58°15' E 011°27'0 0.0
2016-Dec-02 13:27N 58°15' E 011°27'0 0.0
2016-Dec-02 12:16N 58°15' E 011°27'0 0.0
2016-Dec-02 11:20N 58°15' E 011°27'0 0.0
2016-Dec-02 10:33N 58°15' E 011°27'0 0.0
2016-Dec-02 09:33N 58°15' E 011°27'0 0.0
2016-Dec-02 08:32N 58°15' E 011°27'0 0.0
2016-Dec-02 07:26N 58°15' E 011°27'0 0.0
2016-Dec-02 06:33N 58°15' E 011°27'0 0.0
2016-Dec-02 05:22N 58°15' E 011°27'0 0.0
2016-Dec-02 04:27N 58°15' E 011°27'0 0.0
2016-Dec-02 03:26N 58°15' E 011°27'0 0.0
2016-Dec-02 02:30N 58°15' E 011°27'0 0.0
2016-Dec-02 01:24N 58°15' E 011°27'0 0.0
2016-Dec-02 00:22N 58°15' E 011°27'0 0.0
2016-Dec-01 23:19N 58°15' E 011°27'0 0.0
2016-Dec-01 22:33N 58°15' E 011°27'0 0.0
2016-Dec-01 21:26N 58°15' E 011°27'0 0.0
2016-Dec-01 20:30N 58°15' E 011°27'0 0.0
2016-Dec-01 19:28N 58°15' E 011°27'0 0.0
2016-Dec-01 18:32N 58°15' E 011°27'0 0.0
2016-Dec-01 17:20N 58°15' E 011°27'0 0.0
2016-Dec-01 16:32N 58°15' E 011°27'0 0.0
2016-Dec-01 15:20N 58°15' E 011°27'0 0.0
2016-Dec-01 14:14N 58°15' E 011°27'1 1.7
2016-Dec-01 13:33N 58°16' E 011°25'1 1.0
2016-Dec-01 12:33N 58°16' E 011°27'1 1.2
2016-Dec-01 11:33N 58°16' E 011°29'5 4.7
2016-Dec-01 10:30N 58°21' E 011°34'1 1.5
2016-Dec-01 09:32N 58°19' E 011°33'4 4.3
2016-Dec-01 08:33N 58°16' E 011°28'1 0.1
2016-Nov-30 14:11N 58°15' E 011°27'1 1.0
2016-Nov-30 13:33N 58°16' E 011°26'0 0.5
2016-Nov-30 12:33N 58°16' E 011°27'5 1.4
2016-Nov-30 09:09N 58°19' E 011°33'4 6.9
2016-Nov-30 08:30N 58°16' E 011°26'1 0.0
2016-Nov-29 13:30N 58°16' E 011°26'0 0.5
2016-Nov-29 12:33N 58°16' E 011°27'0 0.1
2016-Nov-29 08:33N 58°16' E 011°27'1 0.0
2016-Nov-28 14:19N 58°15' E 011°27'6 7.5
2016-Nov-28 13:33N 58°10' E 011°22'8 7.6
2016-Nov-28 12:31N 58°03' E 011°26'2 1.8
2016-Nov-28 11:33N 58°02' E 011°29'9 9.3
2016-Nov-28 10:33N 57°53' E 011°29'9 9.4
2016-Nov-28 09:33N 57°45' E 011°40'7 7.4
2016-Nov-28 08:33N 57°40' E 011°49'2 1.7
2016-Nov-28 07:33N 57°39' E 011°52'0 0.0
2016-Nov-28 06:33N 57°39' E 011°52'0 0.0
2016-Nov-28 05:34N 57°39' E 011°52'0 0.0
2016-Nov-28 04:34N 57°39' E 011°52'0 0.0
2016-Nov-28 03:34N 57°39' E 011°52'0 0.0
2016-Nov-28 02:34N 57°39' E 011°52'0 0.0
2016-Nov-28 01:34N 57°39' E 011°52'0 0.0
2016-Nov-28 00:33N 57°39' E 011°52'0 0.0
2016-Nov-27 23:33N 57°39' E 011°52'0 0.0
2016-Nov-27 22:34N 57°39' E 011°52'0 0.0
2016-Nov-27 21:34N 57°39' E 011°52'0 0.0
2016-Nov-27 20:34N 57°39' E 011°52'0 0.0
2016-Nov-27 19:34N 57°39' E 011°52'0 0.1
2016-Nov-27 18:34N 57°39' E 011°52'0 0.1
2016-Nov-27 17:34N 57°39' E 011°52'0 0.0
2016-Nov-27 16:33N 57°39' E 011°52'0 0.0
2016-Nov-27 15:33N 57°39' E 011°52'0 0.0
2016-Nov-27 14:34N 57°39' E 011°52'0 0.0
2016-Nov-27 13:34N 57°39' E 011°52'0 0.0
2016-Nov-27 12:33N 57°39' E 011°52'0 0.0
2016-Nov-27 11:34N 57°39' E 011°52'0 0.0
2016-Nov-27 10:33N 57°39' E 011°52'0 0.0
2016-Nov-27 09:33N 57°39' E 011°52'0 0.0
2016-Nov-27 08:34N 57°39' E 011°52'0 0.0
2016-Nov-27 07:33N 57°39' E 011°52'0 0.0
2016-Nov-27 06:33N 57°39' E 011°52'0 0.0
2016-Nov-27 05:33N 57°39' E 011°52'0 0.0
2016-Nov-27 04:33N 57°39' E 011°52'0 0.0
2016-Nov-27 03:33N 57°39' E 011°52'0 0.0
2016-Nov-27 02:33N 57°39' E 011°52'0 0.0
2016-Nov-27 01:33N 57°39' E 011°52'0 0.0
2016-Nov-27 00:33N 57°39' E 011°52'0 0.0
2016-Nov-26 23:33N 57°39' E 011°52'0 0.0
2016-Nov-26 22:33N 57°39' E 011°52'0 0.0
2016-Nov-26 21:34N 57°39' E 011°52'0 0.0
2016-Nov-26 20:33N 57°39' E 011°52'0 0.0
2016-Nov-26 19:34N 57°39' E 011°52'0 0.0
2016-Nov-26 18:33N 57°39' E 011°52'0 0.0
2016-Nov-26 17:33N 57°39' E 011°52'0 0.0
2016-Nov-26 16:33N 57°39' E 011°52'0 0.0
2016-Nov-26 15:33N 57°39' E 011°52'  

Dump ship's entire track history